sensor_id;sensor_type;location;lat;lon;timestamp;pressure;altitude;pressure_sealevel;temperature;humidity
22181;BME280;11256;50.830;12.834;2023-05-24T00:03:31;97904.50;;;13.35;61.12
22181;BME280;11256;50.830;12.834;2023-05-24T00:08:33;97896.34;;;13.35;61.28
22181;BME280;11256;50.830;12.834;2023-05-24T00:13:34;97898.59;;;13.28;61.16
22181;BME280;11256;50.830;12.834;2023-05-24T00:18:34;97889.69;;;13.22;61.07
22181;BME280;11256;50.830;12.834;2023-05-24T00:23:40;97894.91;;;13.19;60.94
22181;BME280;11256;50.830;12.834;2023-05-24T00:28:41;97904.16;;;13.18;61.23
22181;BME280;11256;50.830;12.834;2023-05-24T00:33:41;97909.69;;;13.13;61.09
22181;BME280;11256;50.830;12.834;2023-05-24T00:38:41;97910.81;;;13.07;60.88
22181;BME280;11256;50.830;12.834;2023-05-24T00:43:42;97919.00;;;13.07;60.99
22181;BME280;11256;50.830;12.834;2023-05-24T00:48:44;97908.75;;;12.99;60.93
22181;BME280;11256;50.830;12.834;2023-05-24T00:53:46;97906.06;;;12.94;60.59
22181;BME280;11256;50.830;12.834;2023-05-24T00:58:47;97928.31;;;13.01;60.88
22181;BME280;11256;50.830;12.834;2023-05-24T01:03:53;97927.53;;;13.00;60.59
22181;BME280;11256;50.830;12.834;2023-05-24T01:09:12;97916.22;;;12.88;60.64
22181;BME280;11256;50.830;12.834;2023-05-24T01:25:16;97912.38;;;12.66;60.67
22181;BME280;11256;50.830;12.834;2023-05-24T01:30:18;97935.97;;;12.70;60.78
22181;BME280;11256;50.830;12.834;2023-05-24T01:35:19;97935.75;;;12.67;60.91
22181;BME280;11256;50.830;12.834;2023-05-24T01:40:20;97932.28;;;12.61;61.15
22181;BME280;11256;50.830;12.834;2023-05-24T01:45:38;97938.56;;;12.57;61.26
22181;BME280;11256;50.830;12.834;2023-05-24T01:51:04;97941.28;;;12.57;61.17
22181;BME280;11256;50.830;12.834;2023-05-24T01:56:06;97921.78;;;12.50;60.78
22181;BME280;11256;50.830;12.834;2023-05-24T02:01:08;97934.31;;;12.46;60.61
22181;BME280;11256;50.830;12.834;2023-05-24T02:06:08;97935.47;;;12.40;61.07
22181;BME280;11256;50.830;12.834;2023-05-24T02:11:09;97927.31;;;12.40;60.53
22181;BME280;11256;50.830;12.834;2023-05-24T02:16:10;97919.00;;;12.26;60.80
22181;BME280;11256;50.830;12.834;2023-05-24T02:21:10;97924.44;;;12.26;60.66
22181;BME280;11256;50.830;12.834;2023-05-24T02:26:12;97933.91;;;12.29;60.67
22181;BME280;11256;50.830;12.834;2023-05-24T02:31:13;97926.34;;;12.26;60.60
22181;BME280;11256;50.830;12.834;2023-05-24T02:36:14;97924.72;;;12.25;60.32
22181;BME280;11256;50.830;12.834;2023-05-24T02:41:14;97924.50;;;12.16;60.67
22181;BME280;11256;50.830;12.834;2023-05-24T02:46:18;97913.41;;;12.13;60.35
22181;BME280;11256;50.830;12.834;2023-05-24T02:51:18;97905.81;;;12.15;60.57
22181;BME280;11256;50.830;12.834;2023-05-24T02:56:18;97904.78;;;12.06;59.96
22181;BME280;11256;50.830;12.834;2023-05-24T03:01:19;97911.56;;;12.08;60.11
22181;BME280;11256;50.830;12.834;2023-05-24T03:06:21;97905.94;;;12.00;59.86
22181;BME280;11256;50.830;12.834;2023-05-24T03:11:22;97902.72;;;11.93;60.17
22181;BME280;11256;50.830;12.834;2023-05-24T03:16:23;97901.91;;;11.92;60.01
22181;BME280;11256;50.830;12.834;2023-05-24T03:21:24;97897.44;;;11.73;60.02
22181;BME280;11256;50.830;12.834;2023-05-24T03:26:25;97911.00;;;11.73;60.66
22181;BME280;11256;50.830;12.834;2023-05-24T03:31:26;97912.38;;;11.70;60.51
22181;BME280;11256;50.830;12.834;2023-05-24T03:36:26;97915.13;;;11.65;60.61
22181;BME280;11256;50.830;12.834;2023-05-24T03:41:29;97913.28;;;11.61;60.75
22181;BME280;11256;50.830;12.834;2023-05-24T03:46:32;97912.16;;;11.57;60.87
22181;BME280;11256;50.830;12.834;2023-05-24T03:51:34;97925.75;;;11.57;60.64
22181;BME280;11256;50.830;12.834;2023-05-24T03:56:36;97918.19;;;11.49;60.64
22181;BME280;11256;50.830;12.834;2023-05-24T04:01:37;97924.13;;;11.56;60.51
22181;BME280;11256;50.830;12.834;2023-05-24T04:06:38;97930.09;;;11.53;60.74
22181;BME280;11256;50.830;12.834;2023-05-24T04:11:40;97934.69;;;11.62;60.08
22181;BME280;11256;50.830;12.834;2023-05-24T04:16:41;97930.09;;;11.53;60.57
22181;BME280;11256;50.830;12.834;2023-05-24T04:21:44;97938.78;;;11.55;60.37
22181;BME280;11256;50.830;12.834;2023-05-24T04:26:44;97943.16;;;11.51;60.52
22181;BME280;11256;50.830;12.834;2023-05-24T04:31:46;97939.38;;;11.42;60.63
22181;BME280;11256;50.830;12.834;2023-05-24T04:36:47;97951.03;;;11.52;60.46
22181;BME280;11256;50.830;12.834;2023-05-24T04:41:50;97947.78;;;11.45;60.41
22181;BME280;11256;50.830;12.834;2023-05-24T04:46:52;97961.59;;;11.49;60.42
22181;BME280;11256;50.830;12.834;2023-05-24T04:51:52;97974.09;;;11.50;60.74
22181;BME280;11256;50.830;12.834;2023-05-24T04:56:52;97962.75;;;11.38;60.81
22181;BME280;11256;50.830;12.834;2023-05-24T05:01:53;97981.97;;;11.46;61.06
22181;BME280;11256;50.830;12.834;2023-05-24T05:06:53;97986.56;;;11.51;60.37
22181;BME280;11256;50.830;12.834;2023-05-24T05:11:54;97981.72;;;11.38;60.74
22181;BME280;11256;50.830;12.834;2023-05-24T05:16:54;97989.31;;;11.46;60.64
22181;BME280;11256;50.830;12.834;2023-05-24T05:21:55;97996.34;;;11.47;60.87
22181;BME280;11256;50.830;12.834;2023-05-24T05:26:55;98005.03;;;11.49;60.81
22181;BME280;11256;50.830;12.834;2023-05-24T05:31:55;98011.78;;;11.61;60.95
22181;BME280;11256;50.830;12.834;2023-05-24T05:36:56;97996.31;;;11.57;60.34
22181;BME280;11256;50.830;12.834;2023-05-24T05:41:56;98014.19;;;11.68;60.40
22181;BME280;11256;50.830;12.834;2023-05-24T05:46:57;98014.19;;;11.68;60.28
22181;BME280;11256;50.830;12.834;2023-05-24T05:51:57;98018.50;;;11.74;60.35
22181;BME280;11256;50.830;12.834;2023-05-24T05:56:58;98018.00;;;11.72;60.17
22181;BME280;11256;50.830;12.834;2023-05-24T06:01:58;98028.28;;;11.75;59.95
22181;BME280;11256;50.830;12.834;2023-05-24T06:06:59;98032.03;;;11.84;59.95
22181;BME280;11256;50.830;12.834;2023-05-24T06:11:59;98019.00;;;11.81;59.92
22181;BME280;11256;50.830;12.834;2023-05-24T06:16:59;98038.00;;;11.86;59.72
22181;BME280;11256;50.830;12.834;2023-05-24T06:22:00;98036.34;;;11.90;59.33
22181;BME280;11256;50.830;12.834;2023-05-24T06:27:01;98023.91;;;11.84;59.61
22181;BME280;11256;50.830;12.834;2023-05-24T06:32:01;98025.50;;;11.85;59.35
22181;BME280;11256;50.830;12.834;2023-05-24T06:37:02;98039.03;;;11.95;59.38
22181;BME280;11256;50.830;12.834;2023-05-24T06:42:03;98033.63;;;11.90;59.43
22181;BME280;11256;50.830;12.834;2023-05-24T06:47:09;98030.91;;;11.90;59.71
22181;BME280;11256;50.830;12.834;2023-05-24T06:52:10;98052.31;;;12.01;59.08
22181;BME280;11256;50.830;12.834;2023-05-24T06:57:10;98027.66;;;11.93;59.44
22181;BME280;11256;50.830;12.834;2023-05-24T07:02:11;98044.94;;;12.07;58.85
22181;BME280;11256;50.830;12.834;2023-05-24T07:07:12;98051.44;;;12.11;58.85
22181;BME280;11256;50.830;12.834;2023-05-24T07:12:13;98045.44;;;12.14;58.96
22181;BME280;11256;50.830;12.834;2023-05-24T07:17:14;98051.66;;;12.19;58.85
22181;BME280;11256;50.830;12.834;2023-05-24T07:22:14;98047.09;;;12.15;58.69
22181;BME280;11256;50.830;12.834;2023-05-24T07:27:15;98047.09;;;12.15;58.96
22181;BME280;11256;50.830;12.834;2023-05-24T07:32:15;98061.13;;;12.27;58.45
22181;BME280;11256;50.830;12.834;2023-05-24T07:37:15;98043.78;;;12.18;58.51
22181;BME280;11256;50.830;12.834;2023-05-24T07:42:16;98052.41;;;12.25;58.56
22181;BME280;11256;50.830;12.834;2023-05-24T07:47:17;98066.22;;;12.33;58.48
22181;BME280;11256;50.830;12.834;2023-05-24T07:52:17;98068.91;;;12.38;58.43
22181;BME280;11256;50.830;12.834;2023-05-24T07:57:18;98064.00;;;12.45;58.43
22181;BME280;11256;50.830;12.834;2023-05-24T08:02:18;98056.03;;;12.54;58.63
22181;BME280;11256;50.830;12.834;2023-05-24T08:07:19;98072.28;;;12.64;58.58
22181;BME280;11256;50.830;12.834;2023-05-24T08:12:20;98071.09;;;12.75;58.30
22181;BME280;11256;50.830;12.834;2023-05-24T08:17:20;98076.44;;;12.85;57.85
22181;BME280;11256;50.830;12.834;2023-05-24T08:22:21;98068.28;;;12.85;57.72
22181;BME280;11256;50.830;12.834;2023-05-24T08:27:21;98074.22;;;12.92;57.97
22181;BME280;11256;50.830;12.834;2023-05-24T08:32:21;98074.16;;;13.02;58.14
22181;BME280;11256;50.830;12.834;2023-05-24T08:37:22;98073.44;;;13.20;58.30
22181;BME280;11256;50.830;12.834;2023-05-24T08:42:22;98068.91;;;13.34;58.03
22181;BME280;11256;50.830;12.834;2023-05-24T08:47:24;98092.16;;;13.50;57.39
22181;BME280;11256;50.830;12.834;2023-05-24T08:52:25;98089.97;;;13.52;57.49
22181;BME280;11256;50.830;12.834;2023-05-24T08:57:26;98079.19;;;13.65;57.39
22181;BME280;11256;50.830;12.834;2023-05-24T09:02:28;98086.88;;;13.82;57.35
22181;BME280;11256;50.830;12.834;2023-05-24T09:07:29;98088.09;;;13.94;56.97
22181;BME280;11256;50.830;12.834;2023-05-24T09:12:31;98095.78;;;14.11;56.23
22181;BME280;11256;50.830;12.834;2023-05-24T09:17:33;98099.59;;;14.10;56.27
22181;BME280;11256;50.830;12.834;2023-05-24T09:22:34;98099.75;;;14.18;55.58
22181;BME280;11256;50.830;12.834;2023-05-24T09:27:36;98102.44;;;14.23;55.55
22181;BME280;11256;50.830;12.834;2023-05-24T09:32:37;98104.31;;;14.28;55.66
22181;BME280;11256;50.830;12.834;2023-05-24T09:37:37;98102.25;;;14.38;55.52
22181;BME280;11256;50.830;12.834;2023-05-24T09:42:39;98112.72;;;14.50;55.93
22181;BME280;11256;50.830;12.834;2023-05-24T09:47:40;98112.56;;;14.60;55.43
22181;BME280;11256;50.830;12.834;2023-05-24T09:52:41;98097.06;;;14.74;55.04
22181;BME280;11256;50.830;12.834;2023-05-24T09:57:49;98099.31;;;15.04;55.85
22181;BME280;11256;50.830;12.834;2023-05-24T10:03:00;98090.06;;;15.32;54.96
22181;BME280;11256;50.830;12.834;2023-05-24T10:08:06;98098.75;;;15.66;54.26
22181;BME280;11256;50.830;12.834;2023-05-24T10:13:08;98096.63;;;15.90;54.35
22181;BME280;11256;50.830;12.834;2023-05-24T10:18:08;98101.19;;;16.08;53.56
22181;BME280;11256;50.830;12.834;2023-05-24T10:23:14;98109.44;;;16.30;52.86
22181;BME280;11256;50.830;12.834;2023-05-24T10:28:17;98108.63;;;16.43;52.40
22181;BME280;11256;50.830;12.834;2023-05-24T10:33:21;98115.88;;;16.61;52.33
22181;BME280;11256;50.830;12.834;2023-05-24T10:38:22;98116.78;;;16.70;52.72
22181;BME280;11256;50.830;12.834;2023-05-24T10:43:26;98112.38;;;16.82;52.02
22181;BME280;11256;50.830;12.834;2023-05-24T10:53:26;98101.22;;;17.23;51.81
22181;BME280;11256;50.830;12.834;2023-05-24T11:04:11;98105.03;;;17.35;51.01
22181;BME280;11256;50.830;12.834;2023-05-24T11:09:15;98101.09;;;17.50;50.62
22181;BME280;11256;50.830;12.834;2023-05-24T11:14:22;98095.50;;;17.55;51.17
22181;BME280;11256;50.830;12.834;2023-05-24T11:19:30;98102.44;;;17.61;50.70
22181;BME280;11256;50.830;12.834;2023-05-24T11:24:32;98099.88;;;17.64;51.12
22181;BME280;11256;50.830;12.834;2023-05-24T11:29:40;98091.84;;;17.68;51.22
22181;BME280;11256;50.830;12.834;2023-05-24T11:34:41;98087.69;;;17.79;45.82
22181;BME280;11256;50.830;12.834;2023-05-24T11:39:48;98103.84;;;17.89;49.57
22181;BME280;11256;50.830;12.834;2023-05-24T11:44:50;98097.09;;;17.95;50.61
22181;BME280;11256;50.830;12.834;2023-05-24T11:49:51;98099.91;;;18.12;50.11
22181;BME280;11256;50.830;12.834;2023-05-24T11:54:51;98105.00;;;18.44;48.20
22181;BME280;11256;50.830;12.834;2023-05-24T11:59:54;98107.59;;;18.40;48.87
22181;BME280;11256;50.830;12.834;2023-05-24T12:04:54;98106.44;;;18.41;49.36
22181;BME280;11256;50.830;12.834;2023-05-24T12:09:54;98104.09;;;18.74;48.56
22181;BME280;11256;50.830;12.834;2023-05-24T12:14:55;98099.53;;;18.95;48.71
22181;BME280;11256;50.830;12.834;2023-05-24T12:19:55;98106.31;;;19.40;48.97
22181;BME280;11256;50.830;12.834;2023-05-24T12:24:57;98111.25;;;19.72;47.74
22181;BME280;11256;50.830;12.834;2023-05-24T12:30:05;98081.88;;;19.84;46.74
22181;BME280;11256;50.830;12.834;2023-05-24T12:35:06;98087.34;;;19.93;47.07
22181;BME280;11256;50.830;12.834;2023-05-24T12:40:20;98097.06;;;19.99;47.22
22181;BME280;11256;50.830;12.834;2023-05-24T12:45:22;98096.19;;;20.15;46.12
22181;BME280;11256;50.830;12.834;2023-05-24T12:50:25;98086.50;;;20.09;47.10
22181;BME280;11256;50.830;12.834;2023-05-24T12:55:26;98108.19;;;20.40;46.46
22181;BME280;11256;50.830;12.834;2023-05-24T13:00:28;98105.22;;;20.45;46.62
22181;BME280;11256;50.830;12.834;2023-05-24T13:05:28;98102.09;;;20.26;46.99
22181;BME280;11256;50.830;12.834;2023-05-24T13:10:29;98098.38;;;20.51;46.64
22181;BME280;11256;50.830;12.834;2023-05-24T13:15:29;98096.25;;;20.56;45.97
22181;BME280;11256;50.830;12.834;2023-05-24T13:20:29;98099.81;;;20.57;45.80
22181;BME280;11256;50.830;12.834;2023-05-24T13:25:30;98098.25;;;20.68;45.17
22181;BME280;11256;50.830;12.834;2023-05-24T13:30:31;98093.97;;;20.79;44.25
22181;BME280;11256;50.830;12.834;2023-05-24T13:35:32;98094.22;;;20.86;44.28
22181;BME280;11256;50.830;12.834;2023-05-24T13:40:32;98086.38;;;20.76;44.85
22181;BME280;11256;50.830;12.834;2023-05-24T13:45:32;98078.78;;;20.73;44.97
22181;BME280;11256;50.830;12.834;2023-05-24T13:50:34;98077.81;;;20.69;45.30
22181;BME280;11256;50.830;12.834;2023-05-24T13:55:35;98073.53;;;20.80;44.95
22181;BME280;11256;50.830;12.834;2023-05-24T14:00:37;98078.63;;;21.10;45.25
22181;BME280;11256;50.830;12.834;2023-05-24T14:05:38;98083.84;;;21.24;45.33
22181;BME280;11256;50.830;12.834;2023-05-24T14:10:39;98088.75;;;21.51;44.67
22181;BME280;11256;50.830;12.834;2023-05-24T14:15:40;98088.44;;;21.64;44.01
22181;BME280;11256;50.830;12.834;2023-05-24T14:20:41;98071.38;;;21.83;44.35
22181;BME280;11256;50.830;12.834;2023-05-24T14:25:41;98064.34;;;21.73;43.97
22181;BME280;11256;50.830;12.834;2023-05-24T14:30:42;98084.06;;;21.96;43.25
22181;BME280;11256;50.830;12.834;2023-05-24T14:35:42;98084.84;;;21.84;43.69
22181;BME280;11256;50.830;12.834;2023-05-24T14:40:43;98065.97;;;21.74;44.11
22181;BME280;11256;50.830;12.834;2023-05-24T14:45:46;98080.13;;;21.85;43.34
22181;BME280;11256;50.830;12.834;2023-05-24T14:50:46;98076.69;;;21.88;43.71
22181;BME280;11256;50.830;12.834;2023-05-24T14:55:46;98083.81;;;21.89;44.42
22181;BME280;11256;50.830;12.834;2023-05-24T15:00:47;98083.69;;;21.97;44.16
22181;BME280;11256;50.830;12.834;2023-05-24T15:05:48;98077.03;;;21.98;43.79
22181;BME280;11256;50.830;12.834;2023-05-24T15:10:48;98068.41;;;21.88;42.45
22181;BME280;11256;50.830;12.834;2023-05-24T15:15:48;98068.63;;;21.83;42.82
22181;BME280;11256;50.830;12.834;2023-05-24T15:20:49;98074.84;;;21.80;43.32
22181;BME280;11256;50.830;12.834;2023-05-24T15:25:49;98082.91;;;21.85;42.58
22181;BME280;11256;50.830;12.834;2023-05-24T15:30:50;98090.47;;;22.00;41.59
22181;BME280;11256;50.830;12.834;2023-05-24T15:35:50;98089.13;;;22.06;40.91
22181;BME280;11256;50.830;12.834;2023-05-24T15:40:50;98094.75;;;22.09;40.10
22181;BME280;11256;50.830;12.834;2023-05-24T15:45:51;98087.50;;;22.29;41.44
22181;BME280;11256;50.830;12.834;2023-05-24T15:50:52;98087.50;;;22.29;41.51
22181;BME280;11256;50.830;12.834;2023-05-24T15:55:53;98084.97;;;22.36;41.98
22181;BME280;11256;50.830;12.834;2023-05-24T16:00:56;98076.94;;;22.55;40.86
22181;BME280;11256;50.830;12.834;2023-05-24T16:05:56;98069.03;;;22.69;40.07
22181;BME280;11256;50.830;12.834;2023-05-24T16:10:57;98073.66;;;22.65;40.40
22181;BME280;11256;50.830;12.834;2023-05-24T16:15:57;98090.00;;;22.70;39.65
22181;BME280;11256;50.830;12.834;2023-05-24T16:20:57;98085.63;;;22.69;39.76
22181;BME280;11256;50.830;12.834;2023-05-24T16:25:58;98081.19;;;22.52;39.59
22181;BME280;11256;50.830;12.834;2023-05-24T16:30:59;98100.88;;;22.51;39.50
22181;BME280;11256;50.830;12.834;2023-05-24T16:36:01;98100.38;;;22.37;39.50
22181;BME280;11256;50.830;12.834;2023-05-24T16:41:03;98108.22;;;22.23;40.18
22181;BME280;11256;50.830;12.834;2023-05-24T16:46:06;98094.66;;;22.06;40.72
22181;BME280;11256;50.830;12.834;2023-05-24T16:51:07;98093.94;;;21.85;40.92
22181;BME280;11256;50.830;12.834;2023-05-24T16:56:07;98094.38;;;21.75;41.44
22181;BME280;11256;50.830;12.834;2023-05-24T17:01:07;98107.19;;;21.59;41.61
22181;BME280;11256;50.830;12.834;2023-05-24T17:06:08;98109.09;;;21.46;41.81
22181;BME280;11256;50.830;12.834;2023-05-24T17:11:09;98105.03;;;21.32;41.94
22181;BME280;11256;50.830;12.834;2023-05-24T17:16:09;98109.16;;;21.26;41.69
22181;BME280;11256;50.830;12.834;2023-05-24T17:21:10;98113.47;;;21.15;41.37
22181;BME280;11256;50.830;12.834;2023-05-24T17:26:11;98115.50;;;21.06;41.68
22181;BME280;11256;50.830;12.834;2023-05-24T17:31:13;98115.63;;;20.89;41.45
22181;BME280;11256;50.830;12.834;2023-05-24T17:36:15;98119.91;;;20.78;41.37
22181;BME280;11256;50.830;12.834;2023-05-24T17:41:15;98123.06;;;20.68;41.58
22181;BME280;11256;50.830;12.834;2023-05-24T17:46:16;98114.25;;;20.54;41.16
22181;BME280;11256;50.830;12.834;2023-05-24T17:51:16;98108.19;;;20.40;41.69
22181;BME280;11256;50.830;12.834;2023-05-24T17:56:18;98109.69;;;20.29;41.96
22181;BME280;11256;50.830;12.834;2023-05-24T18:01:21;98105.91;;;20.13;41.86
22181;BME280;11256;50.830;12.834;2023-05-24T18:06:21;98099.31;;;19.97;41.82
22181;BME280;11256;50.830;12.834;2023-05-24T18:11:22;98114.22;;;19.96;41.91
22181;BME280;11256;50.830;12.834;2023-05-24T18:16:23;98114.44;;;19.82;41.85
22181;BME280;11256;50.830;12.834;2023-05-24T18:21:23;98122.41;;;19.67;42.24
22181;BME280;11256;50.830;12.834;2023-05-24T18:26:24;98133.75;;;19.57;42.13
22181;BME280;11256;50.830;12.834;2023-05-24T18:31:24;98141.06;;;19.44;42.32
22181;BME280;11256;50.830;12.834;2023-05-24T18:36:25;98144.31;;;19.29;42.47
22181;BME280;11256;50.830;12.834;2023-05-24T18:41:25;98148.34;;;19.15;42.91
22181;BME280;11256;50.830;12.834;2023-05-24T18:46:25;98159.50;;;19.01;42.97
22181;BME280;11256;50.830;12.834;2023-05-24T18:51:28;98163.69;;;18.90;43.35
22181;BME280;11256;50.830;12.834;2023-05-24T18:56:28;98164.50;;;18.74;43.56
22181;BME280;11256;50.830;12.834;2023-05-24T19:01:29;98161.06;;;18.60;43.79
22181;BME280;11256;50.830;12.834;2023-05-24T19:06:29;98167.50;;;18.47;43.86
22181;BME280;11256;50.830;12.834;2023-05-24T19:11:30;98174.84;;;18.29;44.06
22181;BME280;11256;50.830;12.834;2023-05-24T19:16:30;98177.72;;;18.16;44.25
22181;BME280;11256;50.830;12.834;2023-05-24T19:21:31;98170.19;;;17.99;44.61
22181;BME280;11256;50.830;12.834;2023-05-24T19:26:32;98183.22;;;17.85;44.77
22181;BME280;11256;50.830;12.834;2023-05-24T19:31:32;98177.31;;;17.70;44.92
22181;BME280;11256;50.830;12.834;2023-05-24T19:36:35;98182.88;;;17.56;45.15
22181;BME280;11256;50.830;12.834;2023-05-24T19:41:36;98185.19;;;17.41;45.20
22181;BME280;11256;50.830;12.834;2023-05-24T19:46:36;98195.88;;;17.29;45.38
22181;BME280;11256;50.830;12.834;2023-05-24T19:51:37;98162.22;;;16.93;45.70
22181;BME280;11256;50.830;12.834;2023-05-24T19:56:37;98196.97;;;17.06;45.71
22181;BME280;11256;50.830;12.834;2023-05-24T20:01:38;98206.22;;;16.96;45.56
22181;BME280;11256;50.830;12.834;2023-05-24T20:06:38;98203.03;;;16.81;45.28
22181;BME280;11256;50.830;12.834;2023-05-24T20:11:39;98210.47;;;16.67;45.58
22181;BME280;11256;50.830;12.834;2023-05-24T20:16:39;98217.28;;;16.56;46.04
22181;BME280;11256;50.830;12.834;2023-05-24T20:21:39;98213.22;;;16.40;46.39
22181;BME280;11256;50.830;12.834;2023-05-24T20:26:40;98222.28;;;16.35;46.40
22181;BME280;11256;50.830;12.834;2023-05-24T20:31:40;98224.44;;;16.25;46.58
22181;BME280;11256;50.830;12.834;2023-05-24T20:36:41;98217.63;;;16.09;46.78
22181;BME280;11256;50.830;12.834;2023-05-24T20:41:41;98240.09;;;16.06;46.72
22181;BME280;11256;50.830;12.834;2023-05-24T20:46:42;98235.44;;;15.93;46.90
22181;BME280;11256;50.830;12.834;2023-05-24T20:51:42;98245.97;;;15.86;47.31
22181;BME280;11256;50.830;12.834;2023-05-24T20:56:42;98240.47;;;15.72;47.16
22181;BME280;11256;50.830;12.834;2023-05-24T21:01:43;98248.28;;;15.60;47.29
22181;BME280;11256;50.830;12.834;2023-05-24T21:06:43;98258.81;;;15.53;47.52
22181;BME280;11256;50.830;12.834;2023-05-24T21:11:44;98247.25;;;15.43;47.61
22181;BME280;11256;50.830;12.834;2023-05-24T21:16:44;98243.66;;;15.24;47.71
22181;BME280;11256;50.830;12.834;2023-05-24T21:21:45;98254.16;;;15.17;47.86
22181;BME280;11256;50.830;12.834;2023-05-24T21:26:45;98263.03;;;15.09;48.12
22181;BME280;11256;50.830;12.834;2023-05-24T21:31:46;98261.56;;;14.98;48.16
22181;BME280;11256;50.830;12.834;2023-05-24T21:36:47;98265.53;;;14.87;48.42
22181;BME280;11256;50.830;12.834;2023-05-24T21:41:47;98267.28;;;14.78;48.50
22181;BME280;11256;50.830;12.834;2023-05-24T21:46:48;98267.13;;;14.69;48.47
22181;BME280;11256;50.830;12.834;2023-05-24T21:51:48;98267.53;;;14.58;48.70
22181;BME280;11256;50.830;12.834;2023-05-24T21:56:48;98260.00;;;14.50;48.97
22181;BME280;11256;50.830;12.834;2023-05-24T22:01:49;98262.56;;;14.41;49.12
22181;BME280;11256;50.830;12.834;2023-05-24T22:06:50;98245.06;;;14.19;49.07
22181;BME280;11256;50.830;12.834;2023-05-24T22:11:50;98254.88;;;14.20;49.28
22181;BME280;11256;50.830;12.834;2023-05-24T22:16:51;98259.94;;;14.03;49.37
22181;BME280;11256;50.830;12.834;2023-05-24T22:21:51;98279.63;;;14.00;49.47
22181;BME280;11256;50.830;12.834;2023-05-24T22:26:52;98271.53;;;13.90;49.75
22181;BME280;11256;50.830;12.834;2023-05-24T22:31:52;98270.00;;;13.79;49.67
22181;BME280;11256;50.830;12.834;2023-05-24T22:36:53;98259.75;;;13.66;49.88
22181;BME280;11256;50.830;12.834;2023-05-24T22:41:54;98275.31;;;13.65;49.63
22181;BME280;11256;50.830;12.834;2023-05-24T22:46:55;98269.38;;;13.53;50.00
22181;BME280;11256;50.830;12.834;2023-05-24T22:51:55;98276.28;;;13.46;50.23
22181;BME280;11256;50.830;12.834;2023-05-24T22:56:55;98256.75;;;13.34;50.23
22181;BME280;11256;50.830;12.834;2023-05-24T23:01:56;98276.16;;;13.27;50.50
22181;BME280;11256;50.830;12.834;2023-05-24T23:06:56;98271.03;;;13.16;50.50
22181;BME280;11256;50.830;12.834;2023-05-24T23:11:56;98292.31;;;13.09;50.59
22181;BME280;11256;50.830;12.834;2023-05-24T23:16:57;98276.59;;;12.96;50.66
22181;BME280;11256;50.830;12.834;2023-05-24T23:22:01;98292.94;;;12.91;50.80
22181;BME280;11256;50.830;12.834;2023-05-24T23:27:05;98289.69;;;12.84;51.05
22181;BME280;11256;50.830;12.834;2023-05-24T23:32:06;98287.56;;;12.76;51.13
22181;BME280;11256;50.830;12.834;2023-05-24T23:37:07;98284.91;;;12.61;51.01
22181;BME280;11256;50.830;12.834;2023-05-24T23:42:07;98302.31;;;12.60;51.29
22181;BME280;11256;50.830;12.834;2023-05-24T23:47:08;98282.28;;;12.36;51.56
22181;BME280;11256;50.830;12.834;2023-05-24T23:52:08;98307.81;;;12.45;51.48
22181;BME280;11256;50.830;12.834;2023-05-24T23:57:09;98288.31;;;12.23;51.69
